sensor_id;sensor_type;location;lat;lon;timestamp;pressure;altitude;pressure_sealevel;temperature;humidity
61086;BME280;46967;48.876;2.136;2023-07-22T00:00:57;101476.34;;;43.30;10.59
61086;BME280;46967;48.876;2.136;2023-07-22T00:03:22;101474.66;;;43.29;10.57
61086;BME280;46967;48.876;2.136;2023-07-22T00:05:48;101474.78;;;43.17;10.63
61086;BME280;46967;48.876;2.136;2023-07-22T00:08:14;101476.56;;;43.11;10.79
61086;BME280;46967;48.876;2.136;2023-07-22T00:10:42;101476.56;;;43.11;10.49
61086;BME280;46967;48.876;2.136;2023-07-22T00:13:08;101473.94;;;42.99;10.86
61086;BME280;46967;48.876;2.136;2023-07-22T00:15:33;101472.66;;;42.90;11.06
61086;BME280;46967;48.876;2.136;2023-07-22T00:17:58;101473.13;;;42.70;11.14
61086;BME280;46967;48.876;2.136;2023-07-22T00:20:24;101468.75;;;42.69;10.94
61086;BME280;46967;48.876;2.136;2023-07-22T00:22:52;101472.63;;;42.73;11.22
61086;BME280;46967;48.876;2.136;2023-07-22T00:25:17;101471.16;;;42.65;11.07
61086;BME280;46967;48.876;2.136;2023-07-22T00:27:43;101473.06;;;42.53;10.97
61086;BME280;46967;48.876;2.136;2023-07-22T00:30:08;101479.91;;;42.67;11.19
61086;BME280;46967;48.876;2.136;2023-07-22T00:32:34;101477.41;;;42.66;11.08
61086;BME280;46967;48.876;2.136;2023-07-22T00:35:03;101474.00;;;42.59;11.30
61086;BME280;46967;48.876;2.136;2023-07-22T00:37:28;101467.09;;;42.68;11.22
61086;BME280;46967;48.876;2.136;2023-07-22T00:39:53;101470.06;;;42.66;10.76
61086;BME280;46967;48.876;2.136;2023-07-22T00:42:20;101460.00;;;42.67;10.84
61086;BME280;46967;48.876;2.136;2023-07-22T00:44:45;101463.22;;;42.64;11.03
61086;BME280;46967;48.876;2.136;2023-07-22T00:47:11;101458.81;;;42.63;10.88
61086;BME280;46967;48.876;2.136;2023-07-22T00:49:37;101458.75;;;42.46;11.10
61086;BME280;46967;48.876;2.136;2023-07-22T00:52:04;101457.22;;;42.38;11.06
61086;BME280;46967;48.876;2.136;2023-07-22T00:54:30;101458.56;;;42.35;11.03
61086;BME280;46967;48.876;2.136;2023-07-22T00:56:56;101457.72;;;42.35;11.20
61086;BME280;46967;48.876;2.136;2023-07-22T00:59:23;101457.84;;;42.28;11.25
61086;BME280;46967;48.876;2.136;2023-07-22T01:01:49;101458.00;;;42.22;11.47
61086;BME280;46967;48.876;2.136;2023-07-22T01:04:15;101469.00;;;42.27;11.29
61086;BME280;46967;48.876;2.136;2023-07-22T01:06:44;101460.81;;;42.27;11.38
61086;BME280;46967;48.876;2.136;2023-07-22T01:09:09;101453.63;;;42.21;11.53
61086;BME280;46967;48.876;2.136;2023-07-22T01:11:35;101458.00;;;42.22;11.39
61086;BME280;46967;48.876;2.136;2023-07-22T01:14:00;101457.84;;;42.28;11.26
61086;BME280;46967;48.876;2.136;2023-07-22T01:16:27;101453.25;;;42.29;11.06
61086;BME280;46967;48.876;2.136;2023-07-22T01:18:53;101454.72;;;42.20;11.32
61086;BME280;46967;48.876;2.136;2023-07-22T01:21:22;101451.75;;;42.21;11.45
61086;BME280;46967;48.876;2.136;2023-07-22T01:23:48;101447.72;;;42.12;11.40
61086;BME280;46967;48.876;2.136;2023-07-22T01:26:14;101440.84;;;42.21;11.42
61086;BME280;46967;48.876;2.136;2023-07-22T01:28:39;101448.66;;;42.17;11.41
61086;BME280;46967;48.876;2.136;2023-07-22T01:31:04;101443.09;;;42.24;11.34
61086;BME280;46967;48.876;2.136;2023-07-22T01:33:31;101442.72;;;42.21;11.71
61086;BME280;46967;48.876;2.136;2023-07-22T01:35:56;101439.75;;;42.22;11.36
61086;BME280;46967;48.876;2.136;2023-07-22T01:38:22;101436.34;;;42.15;11.89
61086;BME280;46967;48.876;2.136;2023-07-22T01:40:47;101434.69;;;42.14;11.68
61086;BME280;46967;48.876;2.136;2023-07-22T01:43:13;101437.22;;;41.92;11.72
61086;BME280;46967;48.876;2.136;2023-07-22T01:45:38;101429.34;;;42.07;11.55
61086;BME280;46967;48.876;2.136;2023-07-22T01:48:05;101431.59;;;42.10;11.50
61086;BME280;46967;48.876;2.136;2023-07-22T01:50:31;101434.31;;;42.10;11.70
61086;BME280;46967;48.876;2.136;2023-07-22T01:52:56;101436.00;;;41.99;11.84
61086;BME280;46967;48.876;2.136;2023-07-22T01:55:21;101433.91;;;41.90;11.69
61086;BME280;46967;48.876;2.136;2023-07-22T01:57:47;101446.34;;;41.86;11.99
61086;BME280;46967;48.876;2.136;2023-07-22T02:00:13;101440.53;;;41.94;11.64
61086;BME280;46967;48.876;2.136;2023-07-22T02:02:40;101441.72;;;41.86;11.91
61086;BME280;46967;48.876;2.136;2023-07-22T02:05:06;101435.09;;;41.82;11.92
61086;BME280;46967;48.876;2.136;2023-07-22T02:07:32;101427.31;;;41.74;12.02
61086;BME280;46967;48.876;2.136;2023-07-22T02:09:57;101431.69;;;41.75;11.68
61086;BME280;46967;48.876;2.136;2023-07-22T02:12:23;101427.66;;;41.77;11.79
61086;BME280;46967;48.876;2.136;2023-07-22T02:14:48;101436.28;;;41.74;11.66
61086;BME280;46967;48.876;2.136;2023-07-22T02:17:13;101429.03;;;41.68;11.66
61086;BME280;46967;48.876;2.136;2023-07-22T02:19:39;101422.34;;;41.71;11.78
61086;BME280;46967;48.876;2.136;2023-07-22T02:22:04;101432.84;;;41.79;11.64
61086;BME280;46967;48.876;2.136;2023-07-22T02:24:30;101433.09;;;41.77;11.82
61086;BME280;46967;48.876;2.136;2023-07-22T02:26:55;101429.75;;;41.63;11.79
61086;BME280;46967;48.876;2.136;2023-07-22T02:29:21;101430.38;;;41.66;11.56
61086;BME280;46967;48.876;2.136;2023-07-22T02:31:46;101432.84;;;41.55;11.98
61086;BME280;46967;48.876;2.136;2023-07-22T02:34:12;101433.81;;;41.49;12.12
61086;BME280;46967;48.876;2.136;2023-07-22T02:36:37;101446.00;;;41.46;12.04
61086;BME280;46967;48.876;2.136;2023-07-22T02:39:02;101438.19;;;41.38;12.34
61086;BME280;46967;48.876;2.136;2023-07-22T02:41:28;101433.94;;;41.31;12.19
61086;BME280;46967;48.876;2.136;2023-07-22T02:43:54;101440.69;;;41.28;12.02
61086;BME280;46967;48.876;2.136;2023-07-22T02:46:20;101444.78;;;41.19;12.22
61086;BME280;46967;48.876;2.136;2023-07-22T02:48:45;101441.69;;;41.15;12.34
61086;BME280;46967;48.876;2.136;2023-07-22T02:51:10;101441.22;;;41.18;12.28
61086;BME280;46967;48.876;2.136;2023-07-22T02:53:36;101437.94;;;41.28;12.11
61086;BME280;46967;48.876;2.136;2023-07-22T02:56:02;101440.06;;;41.26;12.45
61086;BME280;46967;48.876;2.136;2023-07-22T02:58:28;101444.59;;;41.32;12.12
61086;BME280;46967;48.876;2.136;2023-07-22T03:00:53;101442.28;;;41.17;12.28
61086;BME280;46967;48.876;2.136;2023-07-22T03:03:18;101440.16;;;41.19;12.39
61086;BME280;46967;48.876;2.136;2023-07-22T03:05:44;101435.09;;;41.23;12.32
61086;BME280;46967;48.876;2.136;2023-07-22T03:08:10;101445.97;;;41.23;12.29
61086;BME280;46967;48.876;2.136;2023-07-22T03:10:35;101443.25;;;41.23;12.46
61086;BME280;46967;48.876;2.136;2023-07-22T03:13:00;101444.88;;;41.24;12.15
61086;BME280;46967;48.876;2.136;2023-07-22T03:15:29;101442.16;;;41.24;12.22
61086;BME280;46967;48.876;2.136;2023-07-22T03:17:55;101448.44;;;41.13;12.44
61086;BME280;46967;48.876;2.136;2023-07-22T03:20:21;101442.53;;;41.27;12.68
61086;BME280;46967;48.876;2.136;2023-07-22T03:22:47;101442.41;;;41.22;12.33
61086;BME280;46967;48.876;2.136;2023-07-22T03:25:14;101447.13;;;41.27;12.42
61086;BME280;46967;48.876;2.136;2023-07-22T03:27:42;101448.59;;;41.30;12.62
61086;BME280;46967;48.876;2.136;2023-07-22T03:30:08;101450.34;;;41.24;12.50
61086;BME280;46967;48.876;2.136;2023-07-22T03:32:36;101447.59;;;41.24;12.65
61086;BME280;46967;48.876;2.136;2023-07-22T03:35:02;101454.50;;;41.26;12.31
61086;BME280;46967;48.876;2.136;2023-07-22T03:37:28;101445.47;;;41.14;12.66
61086;BME280;46967;48.876;2.136;2023-07-22T03:39:53;101450.72;;;41.27;12.49
61086;BME280;46967;48.876;2.136;2023-07-22T03:42:19;101444.44;;;41.15;12.37
61086;BME280;46967;48.876;2.136;2023-07-22T03:44:44;101449.88;;;41.15;12.40
61086;BME280;46967;48.876;2.136;2023-07-22T03:47:10;101447.97;;;41.16;12.60
61086;BME280;46967;48.876;2.136;2023-07-22T03:49:35;101443.59;;;41.15;12.38
61086;BME280;46967;48.876;2.136;2023-07-22T03:52:00;101444.44;;;41.15;12.23
61086;BME280;46967;48.876;2.136;2023-07-22T03:54:26;101452.69;;;41.08;12.44
61086;BME280;46967;48.876;2.136;2023-07-22T03:56:51;101456.59;;;41.01;12.59
61086;BME280;46967;48.876;2.136;2023-07-22T03:59:16;101442.97;;;41.01;12.48
61086;BME280;46967;48.876;2.136;2023-07-22T04:01:42;101447.09;;;40.91;12.60
61086;BME280;46967;48.876;2.136;2023-07-22T04:04:08;101444.72;;;40.95;12.42
61086;BME280;46967;48.876;2.136;2023-07-22T04:06:33;101443.94;;;41.06;12.49
61086;BME280;46967;48.876;2.136;2023-07-22T04:08:59;101447.97;;;41.16;12.81
61086;BME280;46967;48.876;2.136;2023-07-22T04:11:25;101442.75;;;41.14;12.58
61086;BME280;46967;48.876;2.136;2023-07-22T04:13:51;101438.97;;;41.15;12.46
61086;BME280;46967;48.876;2.136;2023-07-22T04:16:16;101442.41;;;41.22;12.18
61086;BME280;46967;48.876;2.136;2023-07-22T04:18:42;101447.50;;;41.19;12.20
61086;BME280;46967;48.876;2.136;2023-07-22T04:21:07;101448.19;;;41.02;12.38
61086;BME280;46967;48.876;2.136;2023-07-22T04:23:32;101443.69;;;41.08;12.47
61086;BME280;46967;48.876;2.136;2023-07-22T04:25:58;101443.69;;;41.08;12.48
61086;BME280;46967;48.876;2.136;2023-07-22T04:28:23;101445.94;;;41.11;12.60
61086;BME280;46967;48.876;2.136;2023-07-22T04:30:57;101447.38;;;41.14;12.55
61086;BME280;46967;48.876;2.136;2023-07-22T04:33:23;101454.59;;;41.20;12.33
61086;BME280;46967;48.876;2.136;2023-07-22T04:35:49;101450.09;;;41.14;12.46
61086;BME280;46967;48.876;2.136;2023-07-22T04:38:14;101447.59;;;41.24;12.41
61086;BME280;46967;48.876;2.136;2023-07-22T04:40:43;101455.19;;;41.10;12.57
61086;BME280;46967;48.876;2.136;2023-07-22T04:43:08;101449.16;;;41.20;12.43
61086;BME280;46967;48.876;2.136;2023-07-22T04:45:34;101454.41;;;41.33;12.54
61086;BME280;46967;48.876;2.136;2023-07-22T04:47:59;101463.13;;;41.23;12.42
61086;BME280;46967;48.876;2.136;2023-07-22T04:50:25;101455.91;;;41.17;12.22
61086;BME280;46967;48.876;2.136;2023-07-22T04:52:50;101454.97;;;41.12;12.55
61086;BME280;46967;48.876;2.136;2023-07-22T04:55:15;101461.44;;;41.10;12.54
61086;BME280;46967;48.876;2.136;2023-07-22T04:57:41;101455.31;;;41.15;12.62
61086;BME280;46967;48.876;2.136;2023-07-22T05:00:13;101461.41;;;41.29;12.59
61086;BME280;46967;48.876;2.136;2023-07-22T05:02:40;101461.41;;;41.29;12.57
61086;BME280;46967;48.876;2.136;2023-07-22T05:05:06;101460.16;;;41.25;12.58
61086;BME280;46967;48.876;2.136;2023-07-22T05:07:32;101455.31;;;41.27;12.47
61086;BME280;46967;48.876;2.136;2023-07-22T05:09:58;101451.78;;;41.38;12.63
61086;BME280;46967;48.876;2.136;2023-07-22T05:12:23;101446.47;;;41.43;12.68
61086;BME280;46967;48.876;2.136;2023-07-22T05:14:48;101450.03;;;41.56;12.54
61086;BME280;46967;48.876;2.136;2023-07-22T05:17:14;101444.09;;;41.47;12.62
61086;BME280;46967;48.876;2.136;2023-07-22T05:19:39;101448.03;;;41.51;12.46
61086;BME280;46967;48.876;2.136;2023-07-22T05:22:05;101445.16;;;41.46;12.45
61086;BME280;46967;48.876;2.136;2023-07-22T05:24:30;101452.75;;;41.56;12.78
61086;BME280;46967;48.876;2.136;2023-07-22T05:26:56;101447.53;;;41.66;12.75
61086;BME280;46967;48.876;2.136;2023-07-22T05:29:21;101446.09;;;41.63;12.38
61086;BME280;46967;48.876;2.136;2023-07-22T05:31:46;101451.78;;;41.62;12.61
61086;BME280;46967;48.876;2.136;2023-07-22T05:34:12;101445.16;;;41.70;12.56
61086;BME280;46967;48.876;2.136;2023-07-22T05:36:37;101448.38;;;41.78;12.24
61086;BME280;46967;48.876;2.136;2023-07-22T05:39:03;101443.50;;;41.92;12.10
61086;BME280;46967;48.876;2.136;2023-07-22T05:41:28;101454.03;;;42.00;12.34
61086;BME280;46967;48.876;2.136;2023-07-22T05:43:53;101447.59;;;42.07;12.40
61086;BME280;46967;48.876;2.136;2023-07-22T05:46:19;101445.81;;;42.12;12.46
61086;BME280;46967;48.876;2.136;2023-07-22T05:48:44;101453.50;;;42.27;12.54
61086;BME280;46967;48.876;2.136;2023-07-22T05:51:10;101458.66;;;42.41;12.11
61086;BME280;46967;48.876;2.136;2023-07-22T05:53:35;101454.94;;;42.47;12.08
61086;BME280;46967;48.876;2.136;2023-07-22T05:56:01;101456.31;;;42.32;12.27
61086;BME280;46967;48.876;2.136;2023-07-22T05:58:26;101451.97;;;42.48;12.34
61086;BME280;46967;48.876;2.136;2023-07-22T06:00:53;101439.75;;;42.51;12.45
61086;BME280;46967;48.876;2.136;2023-07-22T06:03:19;101449.84;;;42.50;12.49
61086;BME280;46967;48.876;2.136;2023-07-22T06:05:46;101459.34;;;42.48;12.40
61086;BME280;46967;48.876;2.136;2023-07-22T06:08:11;101448.44;;;42.48;12.77
61086;BME280;46967;48.876;2.136;2023-07-22T06:10:37;101446.00;;;42.63;12.93
61086;BME280;46967;48.876;2.136;2023-07-22T06:13:03;101454.59;;;42.03;13.54
61086;BME280;46967;48.876;2.136;2023-07-22T06:15:29;101456.09;;;42.51;13.34
61086;BME280;46967;48.876;2.136;2023-07-22T06:17:57;101448.94;;;42.45;13.59
61086;BME280;46967;48.876;2.136;2023-07-22T06:20:22;101448.94;;;42.45;13.66
61086;BME280;46967;48.876;2.136;2023-07-22T06:22:47;101456.91;;;42.63;13.26
61086;BME280;46967;48.876;2.136;2023-07-22T06:25:13;101455.91;;;42.98;13.26
61086;BME280;46967;48.876;2.136;2023-07-22T06:27:38;101451.50;;;42.51;13.92
61086;BME280;46967;48.876;2.136;2023-07-22T06:30:04;101449.44;;;42.30;13.87
61086;BME280;46967;48.876;2.136;2023-07-22T06:32:29;101450.75;;;42.85;13.45
61086;BME280;46967;48.876;2.136;2023-07-22T06:34:56;101450.50;;;42.86;13.14
61086;BME280;46967;48.876;2.136;2023-07-22T06:37:23;101444.84;;;43.05;13.07
61086;BME280;46967;48.876;2.136;2023-07-22T06:39:49;101455.25;;;43.25;13.14
61086;BME280;46967;48.876;2.136;2023-07-22T06:42:14;101450.78;;;42.15;13.18
61086;BME280;46967;48.876;2.136;2023-07-22T06:44:39;101449.28;;;42.94;12.76
61086;BME280;46967;48.876;2.136;2023-07-22T06:47:05;101452.94;;;43.17;12.56
61086;BME280;46967;48.876;2.136;2023-07-22T06:49:31;101444.50;;;43.01;12.64
61086;BME280;46967;48.876;2.136;2023-07-22T06:51:56;101450.41;;;42.81;12.58
61086;BME280;46967;48.876;2.136;2023-07-22T06:54:21;101450.16;;;42.25;12.90
61086;BME280;46967;48.876;2.136;2023-07-22T06:56:47;101444.84;;;43.05;12.72
61086;BME280;46967;48.876;2.136;2023-07-22T06:59:12;101446.50;;;43.40;12.41
61086;BME280;46967;48.876;2.136;2023-07-22T07:01:37;101449.13;;;43.74;12.63
61086;BME280;46967;48.876;2.136;2023-07-22T07:04:03;101438.34;;;43.28;12.58
61086;BME280;46967;48.876;2.136;2023-07-22T07:06:28;101444.50;;;43.35;12.34
61086;BME280;46967;48.876;2.136;2023-07-22T07:08:55;101439.66;;;43.59;12.71
61086;BME280;46967;48.876;2.136;2023-07-22T07:11:20;101443.75;;;43.79;12.46
61086;BME280;46967;48.876;2.136;2023-07-22T07:13:45;101442.50;;;43.87;12.23
61086;BME280;46967;48.876;2.136;2023-07-22T07:16:28;101449.69;;;43.76;12.42
61086;BME280;46967;48.876;2.136;2023-07-22T07:18:56;101449.28;;;44.28;12.24
61086;BME280;46967;48.876;2.136;2023-07-22T07:21:22;101454.06;;;43.94;12.22
61086;BME280;46967;48.876;2.136;2023-07-22T07:23:48;101444.94;;;43.66;12.46
61086;BME280;46967;48.876;2.136;2023-07-22T07:26:14;101450.63;;;43.42;12.56
61086;BME280;46967;48.876;2.136;2023-07-22T07:28:40;101458.28;;;43.80;12.25
61086;BME280;46967;48.876;2.136;2023-07-22T07:31:05;101457.44;;;43.79;12.17
61086;BME280;46967;48.876;2.136;2023-07-22T07:33:31;101465.03;;;43.77;12.51
61086;BME280;46967;48.876;2.136;2023-07-22T07:35:56;101455.91;;;43.88;12.28
61086;BME280;46967;48.876;2.136;2023-07-22T07:38:22;101468.81;;;44.15;12.39
61086;BME280;46967;48.876;2.136;2023-07-22T07:40:55;101457.00;;;43.48;12.58
61086;BME280;46967;48.876;2.136;2023-07-22T07:43:21;101468.97;;;43.30;12.60
61086;BME280;46967;48.876;2.136;2023-07-22T07:45:46;101471.56;;;42.45;13.12
61086;BME280;46967;48.876;2.136;2023-07-22T07:48:12;101466.03;;;42.69;12.65
61086;BME280;46967;48.876;2.136;2023-07-22T07:50:37;101465.94;;;42.52;13.07
61086;BME280;46967;48.876;2.136;2023-07-22T07:53:02;101460.28;;;43.33;12.49
61086;BME280;46967;48.876;2.136;2023-07-22T07:55:28;101453.59;;;43.41;12.36
61086;BME280;46967;48.876;2.136;2023-07-22T07:57:53;101453.47;;;44.14;11.70
61086;BME280;46967;48.876;2.136;2023-07-22T08:00:19;101446.28;;;44.30;11.66
61086;BME280;46967;48.876;2.136;2023-07-22T08:02:45;101449.03;;;43.47;12.22
61086;BME280;46967;48.876;2.136;2023-07-22T08:05:11;101452.09;;;43.89;12.19
61086;BME280;46967;48.876;2.136;2023-07-22T08:07:37;101444.34;;;44.25;11.66
61086;BME280;46967;48.876;2.136;2023-07-22T08:10:03;101442.44;;;44.04;11.86
61086;BME280;46967;48.876;2.136;2023-07-22T08:12:30;101444.41;;;43.86;12.19
61086;BME280;46967;48.876;2.136;2023-07-22T08:14:55;101444.66;;;44.29;12.09
61086;BME280;46967;48.876;2.136;2023-07-22T08:17:21;101445.94;;;44.48;11.67
61086;BME280;46967;48.876;2.136;2023-07-22T08:19:46;101448.09;;;45.01;11.16
61086;BME280;46967;48.876;2.136;2023-07-22T08:22:12;101452.59;;;44.85;11.17
61086;BME280;46967;48.876;2.136;2023-07-22T08:24:37;101449.78;;;45.07;11.23
61086;BME280;46967;48.876;2.136;2023-07-22T08:27:03;101455.00;;;45.09;11.15
61086;BME280;46967;48.876;2.136;2023-07-22T08:29:28;101442.66;;;45.06;11.18
61086;BME280;46967;48.876;2.136;2023-07-22T08:31:54;101446.13;;;45.29;10.88
61086;BME280;46967;48.876;2.136;2023-07-22T08:34:20;101442.16;;;45.52;10.55
61086;BME280;46967;48.876;2.136;2023-07-22T08:36:45;101438.13;;;45.65;10.68
61086;BME280;46967;48.876;2.136;2023-07-22T08:39:10;101431.28;;;45.19;10.74
61086;BME280;46967;48.876;2.136;2023-07-22T08:41:36;101437.25;;;45.11;10.97
61086;BME280;46967;48.876;2.136;2023-07-22T08:44:04;101434.50;;;44.79;10.71
61086;BME280;46967;48.876;2.136;2023-07-22T08:46:32;101432.34;;;43.26;11.32
61086;BME280;46967;48.876;2.136;2023-07-22T08:48:59;101429.84;;;44.03;11.15
61086;BME280;46967;48.876;2.136;2023-07-22T08:51:26;101427.69;;;45.19;10.36
61086;BME280;46967;48.876;2.136;2023-07-22T08:53:54;101430.59;;;45.92;10.15
61086;BME280;46967;48.876;2.136;2023-07-22T08:56:23;101428.16;;;45.43;9.95
61086;BME280;46967;48.876;2.136;2023-07-22T08:58:51;101423.63;;;45.74;9.82
61086;BME280;46967;48.876;2.136;2023-07-22T09:01:16;101425.81;;;45.72;9.68
61086;BME280;46967;48.876;2.136;2023-07-22T09:03:43;101431.00;;;46.32;9.16
61086;BME280;46967;48.876;2.136;2023-07-22T09:06:09;101417.25;;;46.17;9.68
61086;BME280;46967;48.876;2.136;2023-07-22T09:08:35;101432.09;;;45.68;9.55
61086;BME280;46967;48.876;2.136;2023-07-22T09:11:01;101422.16;;;44.49;10.26
61086;BME280;46967;48.876;2.136;2023-07-22T09:13:27;101417.50;;;45.47;9.47
61086;BME280;46967;48.876;2.136;2023-07-22T09:15:53;101404.34;;;45.06;9.75
61086;BME280;46967;48.876;2.136;2023-07-22T09:18:21;101421.19;;;44.93;10.05
61086;BME280;46967;48.876;2.136;2023-07-22T09:20:47;101416.13;;;44.47;10.70
61086;BME280;46967;48.876;2.136;2023-07-22T09:23:13;101418.78;;;44.64;10.36
61086;BME280;46967;48.876;2.136;2023-07-22T09:25:41;101409.44;;;45.35;9.55
61086;BME280;46967;48.876;2.136;2023-07-22T09:28:06;101408.06;;;45.80;9.93
61086;BME280;46967;48.876;2.136;2023-07-22T09:30:34;101402.75;;;45.15;10.08
61086;BME280;46967;48.876;2.136;2023-07-22T09:33:04;101405.78;;;45.62;9.52
61086;BME280;46967;48.876;2.136;2023-07-22T09:38:05;101412.28;;;46.03;9.61
61086;BME280;46967;48.876;2.136;2023-07-22T09:40:30;101410.34;;;46.04;9.57
61086;BME280;46967;48.876;2.136;2023-07-22T09:42:57;101405.50;;;46.37;9.87
61086;BME280;46967;48.876;2.136;2023-07-22T09:45:29;101408.69;;;45.39;9.95
61086;BME280;46967;48.876;2.136;2023-07-22T09:47:54;101406.38;;;44.89;10.82
61086;BME280;46967;48.876;2.136;2023-07-22T09:50:22;101402.00;;;44.88;10.43
61086;BME280;46967;48.876;2.136;2023-07-22T09:55:17;101398.94;;;47.91;8.67
61086;BME280;46967;48.876;2.136;2023-07-22T10:00:25;101385.09;;;45.97;10.08
61086;BME280;46967;48.876;2.136;2023-07-22T10:02:53;101388.38;;;44.33;10.72
61086;BME280;46967;48.876;2.136;2023-07-22T10:05:21;101400.19;;;45.41;9.93
61086;BME280;46967;48.876;2.136;2023-07-22T10:07:52;101381.44;;;45.70;9.83
61086;BME280;46967;48.876;2.136;2023-07-22T10:10:19;101384.38;;;46.68;9.72
61086;BME280;46967;48.876;2.136;2023-07-22T10:12:46;101375.50;;;48.03;8.42
61086;BME280;46967;48.876;2.136;2023-07-22T10:15:13;101382.84;;;47.58;8.95
61086;BME280;46967;48.876;2.136;2023-07-22T10:17:40;101377.25;;;46.41;9.25
61086;BME280;46967;48.876;2.136;2023-07-22T10:20:09;101385.06;;;45.81;9.70
61086;BME280;46967;48.876;2.136;2023-07-22T10:22:44;101377.53;;;47.07;8.98
61086;BME280;46967;48.876;2.136;2023-07-22T10:25:11;101385.44;;;46.16;9.04
61086;BME280;46967;48.876;2.136;2023-07-22T10:27:37;101382.22;;;46.96;8.76
61086;BME280;46967;48.876;2.136;2023-07-22T10:30:05;101376.97;;;46.84;8.74
61086;BME280;46967;48.876;2.136;2023-07-22T10:32:38;101366.25;;;47.89;8.19
61086;BME280;46967;48.876;2.136;2023-07-22T10:35:04;101363.47;;;47.34;8.16
61086;BME280;46967;48.876;2.136;2023-07-22T10:37:33;101367.66;;;46.80;8.54
61086;BME280;46967;48.876;2.136;2023-07-22T10:40:01;101363.41;;;47.44;8.34
61086;BME280;46967;48.876;2.136;2023-07-22T10:42:41;101368.94;;;46.10;8.28
61086;BME280;46967;48.876;2.136;2023-07-22T10:45:23;101371.00;;;45.62;8.39
61086;BME280;46967;48.876;2.136;2023-07-22T10:48:00;101374.47;;;45.42;8.75
61086;BME280;46967;48.876;2.136;2023-07-22T10:50:47;101374.94;;;44.59;9.00
61086;BME280;46967;48.876;2.136;2023-07-22T10:53:37;101368.63;;;45.91;8.25
61086;BME280;46967;48.876;2.136;2023-07-22T10:56:04;101370.94;;;45.47;8.04
61086;BME280;46967;48.876;2.136;2023-07-22T10:58:31;101353.28;;;47.40;7.65
61086;BME280;46967;48.876;2.136;2023-07-22T11:11:54;101339.00;;;47.38;7.49
61086;BME280;46967;48.876;2.136;2023-07-22T11:14:22;101330.06;;;48.80;6.88
61086;BME280;46967;48.876;2.136;2023-07-22T11:16:48;101341.16;;;49.23;6.78
61086;BME280;46967;48.876;2.136;2023-07-22T11:19:14;101340.75;;;49.35;6.66
61086;BME280;46967;48.876;2.136;2023-07-22T11:21:41;101331.41;;;50.45;6.38
61086;BME280;46967;48.876;2.136;2023-07-22T11:24:07;101314.34;;;50.43;6.46
61086;BME280;46967;48.876;2.136;2023-07-22T11:26:33;101334.22;;;50.07;6.49
61086;BME280;46967;48.876;2.136;2023-07-22T11:29:03;101324.47;;;49.09;6.79
61086;BME280;46967;48.876;2.136;2023-07-22T11:31:39;101326.09;;;49.16;6.67
61086;BME280;46967;48.876;2.136;2023-07-22T11:34:20;101328.38;;;48.84;7.34
61086;BME280;46967;48.876;2.136;2023-07-22T11:36:47;101322.84;;;48.25;7.14
61086;BME280;46967;48.876;2.136;2023-07-22T11:39:18;101321.81;;;48.16;7.18
61086;BME280;46967;48.876;2.136;2023-07-22T11:41:44;101317.69;;;47.04;7.77
61086;BME280;46967;48.876;2.136;2023-07-22T11:44:12;101315.09;;;47.38;7.74
61086;BME280;46967;48.876;2.136;2023-07-22T11:46:57;101312.38;;;49.10;7.04
61086;BME280;46967;48.876;2.136;2023-07-22T11:49:32;101307.53;;;48.78;6.83
61086;BME280;46967;48.876;2.136;2023-07-22T11:51:59;101312.28;;;49.21;6.66
61086;BME280;46967;48.876;2.136;2023-07-22T11:54:26;101311.72;;;48.36;7.34
61086;BME280;46967;48.876;2.136;2023-07-22T11:56:51;101310.25;;;48.49;6.55
61086;BME280;46967;48.876;2.136;2023-07-22T11:59:17;101298.50;;;46.83;7.91
61086;BME280;46967;48.876;2.136;2023-07-22T12:01:44;101305.19;;;48.61;7.20
61086;BME280;46967;48.876;2.136;2023-07-22T12:04:12;101307.44;;;47.85;7.54
61086;BME280;46967;48.876;2.136;2023-07-22T12:06:38;101302.47;;;47.37;7.76
61086;BME280;46967;48.876;2.136;2023-07-22T12:09:03;101297.09;;;45.88;8.16
61086;BME280;46967;48.876;2.136;2023-07-22T12:11:32;101300.09;;;44.38;9.33
61086;BME280;46967;48.876;2.136;2023-07-22T12:14:13;101291.78;;;47.20;7.98
61086;BME280;46967;48.876;2.136;2023-07-22T12:16:41;101284.78;;;46.52;8.37
61086;BME280;46967;48.876;2.136;2023-07-22T12:19:09;101283.06;;;48.13;7.56
61086;BME280;46967;48.876;2.136;2023-07-22T12:21:35;101282.66;;;47.90;7.32
61086;BME280;46967;48.876;2.136;2023-07-22T12:24:01;101286.09;;;49.80;6.37
61086;BME280;46967;48.876;2.136;2023-07-22T12:26:27;101283.63;;;48.97;6.61
61086;BME280;46967;48.876;2.136;2023-07-22T12:28:53;101277.41;;;48.28;7.53
61086;BME280;46967;48.876;2.136;2023-07-22T12:31:18;101275.47;;;46.12;8.49
61086;BME280;46967;48.876;2.136;2023-07-22T12:33:43;101269.97;;;47.94;7.83
61086;BME280;46967;48.876;2.136;2023-07-22T12:36:09;101276.50;;;48.67;6.96
61086;BME280;46967;48.876;2.136;2023-07-22T12:38:34;101268.13;;;48.53;7.00
61086;BME280;46967;48.876;2.136;2023-07-22T12:41:01;101259.81;;;49.50;6.59
61086;BME280;46967;48.876;2.136;2023-07-22T12:43:26;101261.31;;;49.61;6.67
61086;BME280;46967;48.876;2.136;2023-07-22T12:45:52;101269.16;;;50.39;6.47
61086;BME280;46967;48.876;2.136;2023-07-22T12:48:17;101265.53;;;49.92;6.53
61086;BME280;46967;48.876;2.136;2023-07-22T12:50:46;101259.16;;;49.58;6.72
61086;BME280;46967;48.876;2.136;2023-07-22T12:53:14;101250.28;;;50.13;6.46
61086;BME280;46967;48.876;2.136;2023-07-22T12:55:39;101253.47;;;50.95;6.25
61086;BME280;46967;48.876;2.136;2023-07-22T12:58:05;101247.81;;;49.41;7.29
61086;BME280;46967;48.876;2.136;2023-07-22T13:00:30;101252.28;;;49.94;6.54
61086;BME280;46967;48.876;2.136;2023-07-22T13:02:55;101259.22;;;49.91;6.56
61086;BME280;46967;48.876;2.136;2023-07-22T13:05:22;101259.03;;;50.34;6.43
61086;BME280;46967;48.876;2.136;2023-07-22T13:07:47;101253.16;;;50.83;6.57